Odell, Oregon
Current Conditions -  °F | °C
As of 1:39 AM on Saturday 25 Oct 2014 (Local Time) from K4S2 Reporting Station
Overcast Overcast  
Wind Chill: 50°   Ceiling: 2500
Heat Index: 50°   Visibility: 10mi
Dew Point: 48°   Wind: 3mph
Humidity: 94%   Direction: 30°NNE
Pressure: 29.79"   Gusts: NA
Location:  45.63°N, 121.55°W
Report Text: K4S2 250839Z AUTO 03003KT 10SM BKN025 OVC030 10/09 A2979 RMK AO2 SLP102 T01000090
Loading
Personal Weather Stations






























Interactive Weather Map New forecast layout! Learn more

10-Day Weather Forecast

Advertisements
Track Severe Weather on mobile